UAL1054 KLAX-KPHX
Flight info
| Callsign | UAL1054 |
|---|---|
| Flight time | 1h 8m |
| Altitude | 35000 |
| Route | DOTSS2 CNERY BLH HYDRR1 |
| Aircraft | B739/M-SDE2E3FGHIRWXY/LB1 |
Departure
| Time | 2026-04-20 04:50 |
|---|---|
| Airport | Los Angeles International Airport (KLAX) |
Arrival
| Time | 2026-04-20 05:59 |
|---|---|
| Airport | Phoenix Sky Harbor International Airport (KPHX) |
| Time | Latitude | Longitude | Altitude | Speed | Heading |
|---|---|---|---|---|---|
| 2026-04-20 04:25 | 33.94261 | -118.41110 | 125 ft | 0 kts | 84° |
| 2026-04-20 04:33 | 33.94261 | -118.41111 | 125 ft | 1 kts | 84° |
| 2026-04-20 04:33 | 33.94258 | -118.41139 | 122 ft | 4 kts | 83° |
| 2026-04-20 04:34 | 33.94255 | -118.41171 | 124 ft | 4 kts | 85° |
| 2026-04-20 04:34 | 33.94255 | -118.41203 | 123 ft | 4 kts | 105° |
| 2026-04-20 04:34 | 33.94264 | -118.41222 | 120 ft | 2 kts | 170° |
| 2026-04-20 04:34 | 33.94266 | -118.41222 | 123 ft | 0 kts | 172° |
| 2026-04-20 04:39 | 33.94265 | -118.41222 | 125 ft | 1 kts | 172° |
| 2026-04-20 04:40 | 33.94236 | -118.41217 | 123 ft | 8 kts | 172° |
| 2026-04-20 04:40 | 33.94159 | -118.41205 | 123 ft | 13 kts | 173° |
| 2026-04-20 04:40 | 33.94060 | -118.41190 | 125 ft | 15 kts | 173° |
| 2026-04-20 04:40 | 33.93957 | -118.41175 | 123 ft | 16 kts | 173° |
| 2026-04-20 04:41 | 33.93849 | -118.41159 | 123 ft | 16 kts | 173° |
| 2026-04-20 04:41 | 33.93770 | -118.41102 | 122 ft | 15 kts | 100° |
| 2026-04-20 04:41 | 33.93779 | -118.40971 | 125 ft | 17 kts | 83° |
| 2026-04-20 04:41 | 33.93795 | -118.40817 | 122 ft | 20 kts | 83° |
| 2026-04-20 04:42 | 33.93813 | -118.40646 | 122 ft | 21 kts | 83° |
| 2026-04-20 04:42 | 33.93828 | -118.40499 | 123 ft | 17 kts | 83° |
| 2026-04-20 04:42 | 33.93842 | -118.40363 | 123 ft | 16 kts | 83° |
| 2026-04-20 04:42 | 33.93855 | -118.40233 | 121 ft | 15 kts | 83° |
| 2026-04-20 04:43 | 33.93868 | -118.40108 | 121 ft | 15 kts | 83° |
| 2026-04-20 04:43 | 33.93881 | -118.39978 | 125 ft | 16 kts | 83° |
| 2026-04-20 04:43 | 33.93896 | -118.39828 | 121 ft | 20 kts | 83° |
| 2026-04-20 04:43 | 33.93914 | -118.39654 | 123 ft | 22 kts | 83° |
| 2026-04-20 04:44 | 33.93933 | -118.39465 | 125 ft | 23 kts | 83° |
| 2026-04-20 04:44 | 33.93952 | -118.39288 | 125 ft | 20 kts | 82° |
| 2026-04-20 04:44 | 33.93969 | -118.39124 | 122 ft | 19 kts | 83° |
| 2026-04-20 04:44 | 33.93985 | -118.38968 | 123 ft | 19 kts | 83° |
| 2026-04-20 04:45 | 33.94000 | -118.38815 | 123 ft | 18 kts | 83° |
| 2026-04-20 04:45 | 33.94015 | -118.38668 | 123 ft | 17 kts | 83° |
| 2026-04-20 04:45 | 33.94030 | -118.38525 | 125 ft | 17 kts | 83° |
| 2026-04-20 04:45 | 33.94044 | -118.38387 | 124 ft | 16 kts | 83° |
| 2026-04-20 04:46 | 33.94057 | -118.38256 | 123 ft | 15 kts | 83° |
| 2026-04-20 04:46 | 33.94070 | -118.38130 | 123 ft | 15 kts | 83° |
| 2026-04-20 04:46 | 33.94071 | -118.38023 | 125 ft | 5 kts | 116° |
| 2026-04-20 04:46 | 33.94069 | -118.38021 | 125 ft | 0 kts | 121° |
| 2026-04-20 04:49 | 33.94061 | -118.38011 | 122 ft | 5 kts | 141° |
| 2026-04-20 04:49 | 33.94007 | -118.38004 | 122 ft | 11 kts | 199° |
| 2026-04-20 04:49 | 33.93976 | -118.38106 | 125 ft | 16 kts | 262° |
| 2026-04-20 04:49 | 33.93971 | -118.38144 | 125 ft | 6 kts | 262° |
| 2026-04-20 04:50 | 33.93956 | -118.38287 | 125 ft | 35 kts | 263° |
| 2026-04-20 04:50 | 33.93891 | -118.38919 | 123 ft | 115 kts | 263° |
| 2026-04-20 04:50 | 33.93762 | -118.40138 | 148 ft | 175 kts | 262° |
| 2026-04-20 04:50 | 33.93609 | -118.41695 | 750 ft | 191 kts | 263° |
| 2026-04-20 04:51 | 33.93448 | -118.43358 | 1391 ft | 214 kts | 263° |
| 2026-04-20 04:51 | 33.93221 | -118.45197 | 2167 ft | 220 kts | 257° |
| 2026-04-20 04:51 | 33.92702 | -118.46915 | 2837 ft | 220 kts | 241° |
| 2026-04-20 04:51 | 33.91886 | -118.48453 | 3414 ft | 221 kts | 231° |
| 2026-04-20 04:52 | 33.90859 | -118.49955 | 3639 ft | 240 kts | 226° |
| 2026-04-20 04:52 | 33.89655 | -118.51448 | 3878 ft | 259 kts | 225° |
| 2026-04-20 04:52 | 33.88397 | -118.53064 | 4420 ft | 268 kts | 226° |
| 2026-04-20 04:52 | 33.87145 | -118.54693 | 5236 ft | 267 kts | 219° |
| 2026-04-20 04:53 | 33.85529 | -118.55750 | 5966 ft | 265 kts | 192° |
| 2026-04-20 04:53 | 33.83703 | -118.55889 | 6727 ft | 262 kts | 170° |
| 2026-04-20 04:53 | 33.81906 | -118.55447 | 7432 ft | 265 kts | 166° |
| 2026-04-20 04:53 | 33.80096 | -118.54929 | 8103 ft | 269 kts | 166° |
| 2026-04-20 04:54 | 33.78338 | -118.54429 | 8776 ft | 272 kts | 166° |
| 2026-04-20 04:54 | 33.76409 | -118.53895 | 9512 ft | 276 kts | 167° |
| 2026-04-20 04:54 | 33.74549 | -118.53388 | 10181 ft | 279 kts | 167° |
| 2026-04-20 04:54 | 33.72590 | -118.52858 | 10430 ft | 299 kts | 167° |
| 2026-04-20 04:55 | 33.70611 | -118.51855 | 10569 ft | 322 kts | 145° |
| 2026-04-20 04:55 | 33.69508 | -118.50603 | 10670 ft | 337 kts | 129° |
| 2026-04-20 04:55 | 33.68691 | -118.48906 | 10773 ft | 352 kts | 114° |
| 2026-04-20 04:55 | 33.67605 | -118.45159 | 11342 ft | 364 kts | 110° |
| 2026-04-20 04:56 | 33.66795 | -118.42267 | 11949 ft | 367 kts | 111° |
| 2026-04-20 04:56 | 33.65956 | -118.39367 | 12568 ft | 369 kts | 111° |
| 2026-04-20 04:56 | 33.65101 | -118.36445 | 13114 ft | 373 kts | 110° |
| 2026-04-20 04:56 | 33.64502 | -118.33371 | 13660 ft | 380 kts | 100° |
| 2026-04-20 04:57 | 33.64367 | -118.31265 | 14002 ft | 384 kts | 94° |
| 2026-04-20 04:57 | 33.64368 | -118.26986 | 14696 ft | 388 kts | 92° |
| 2026-04-20 04:57 | 33.64400 | -118.23734 | 15205 ft | 391 kts | 92° |
| 2026-04-20 04:57 | 33.64429 | -118.20458 | 15725 ft | 394 kts | 92° |
| 2026-04-20 04:58 | 33.64448 | -118.17153 | 16231 ft | 397 kts | 92° |
| 2026-04-20 04:58 | 33.64456 | -118.14964 | 16518 ft | 398 kts | 92° |
| 2026-04-20 04:58 | 33.64462 | -118.11627 | 17012 ft | 401 kts | 92° |
| 2026-04-20 04:58 | 33.64462 | -118.08262 | 17485 ft | 404 kts | 92° |
| 2026-04-20 04:59 | 33.64460 | -118.04872 | 17955 ft | 407 kts | 92° |
| 2026-04-20 04:59 | 33.64456 | -118.01461 | 18459 ft | 410 kts | 92° |
| 2026-04-20 04:59 | 33.64451 | -117.98029 | 18877 ft | 412 kts | 92° |
| 2026-04-20 04:59 | 33.64445 | -117.94585 | 19286 ft | 414 kts | 92° |
| 2026-04-20 05:00 | 33.64439 | -117.91119 | 19691 ft | 417 kts | 92° |
| 2026-04-20 05:00 | 33.64432 | -117.87635 | 20096 ft | 419 kts | 92° |
| 2026-04-20 05:00 | 33.64423 | -117.84118 | 20513 ft | 422 kts | 92° |
| 2026-04-20 05:00 | 33.64367 | -117.80591 | 20915 ft | 423 kts | 97° |
| 2026-04-20 05:01 | 33.63917 | -117.77108 | 21303 ft | 423 kts | 107° |
| 2026-04-20 05:01 | 33.63113 | -117.73754 | 21681 ft | 424 kts | 109° |
| 2026-04-20 05:01 | 33.62244 | -117.70355 | 22041 ft | 427 kts | 109° |
| 2026-04-20 05:01 | 33.61364 | -117.66942 | 22402 ft | 430 kts | 109° |
| 2026-04-20 05:02 | 33.60485 | -117.63498 | 22770 ft | 433 kts | 109° |
| 2026-04-20 05:02 | 33.59613 | -117.60034 | 23133 ft | 435 kts | 109° |
| 2026-04-20 05:02 | 33.58744 | -117.56549 | 23500 ft | 438 kts | 109° |
| 2026-04-20 05:02 | 33.57873 | -117.53037 | 23811 ft | 441 kts | 109° |
| 2026-04-20 05:03 | 33.56998 | -117.49500 | 24101 ft | 443 kts | 109° |
| 2026-04-20 05:03 | 33.56114 | -117.45934 | 24417 ft | 445 kts | 109° |
| 2026-04-20 05:03 | 33.55228 | -117.42362 | 24727 ft | 447 kts | 109° |
| 2026-04-20 05:03 | 33.54348 | -117.38823 | 25020 ft | 450 kts | 109° |
| 2026-04-20 05:04 | 33.53451 | -117.35221 | 25313 ft | 452 kts | 109° |
| 2026-04-20 05:04 | 33.52547 | -117.31597 | 25612 ft | 453 kts | 109° |
| 2026-04-20 05:04 | 33.51647 | -117.27993 | 26014 ft | 453 kts | 109° |
| 2026-04-20 05:04 | 33.50790 | -117.24340 | 26203 ft | 459 kts | 104° |
| 2026-04-20 05:05 | 33.50329 | -117.20528 | 26409 ft | 465 kts | 95° |
| 2026-04-20 05:05 | 33.50259 | -117.16638 | 26696 ft | 467 kts | 92° |
| 2026-04-20 05:05 | 33.50243 | -117.12747 | 27003 ft | 469 kts | 92° |
| 2026-04-20 05:05 | 33.50233 | -117.08832 | 27282 ft | 471 kts | 92° |
| 2026-04-20 05:06 | 33.50211 | -117.04891 | 27533 ft | 473 kts | 92° |
| 2026-04-20 05:06 | 33.50176 | -117.00942 | 27789 ft | 475 kts | 92° |
| 2026-04-20 05:06 | 33.50127 | -116.96970 | 28045 ft | 477 kts | 92° |
| 2026-04-20 05:06 | 33.50071 | -116.92987 | 28309 ft | 479 kts | 92° |
| 2026-04-20 05:07 | 33.50010 | -116.88992 | 28560 ft | 481 kts | 92° |
| 2026-04-20 05:07 | 33.49947 | -116.84976 | 28865 ft | 481 kts | 92° |
| 2026-04-20 05:07 | 33.49884 | -116.81020 | 29239 ft | 480 kts | 92° |
| 2026-04-20 05:07 | 33.49820 | -116.77022 | 29648 ft | 479 kts | 92° |
| 2026-04-20 05:08 | 33.49755 | -116.73039 | 30020 ft | 478 kts | 92° |
| 2026-04-20 05:08 | 33.49689 | -116.69048 | 30289 ft | 479 kts | 92° |
| 2026-04-20 05:08 | 33.49625 | -116.65272 | 30529 ft | 479 kts | 92° |
| 2026-04-20 05:08 | 33.49555 | -116.61195 | 30818 ft | 479 kts | 92° |
| 2026-04-20 05:09 | 33.49485 | -116.57204 | 31106 ft | 479 kts | 92° |
| 2026-04-20 05:09 | 33.49414 | -116.53215 | 31372 ft | 479 kts | 92° |
| 2026-04-20 05:09 | 33.49342 | -116.49225 | 31629 ft | 480 kts | 93° |
| 2026-04-20 05:09 | 33.49268 | -116.45225 | 31889 ft | 480 kts | 93° |
| 2026-04-20 05:10 | 33.49194 | -116.41230 | 32143 ft | 480 kts | 93° |
| 2026-04-20 05:10 | 33.49131 | -116.37230 | 32414 ft | 480 kts | 92° |
| 2026-04-20 05:10 | 33.49074 | -116.33279 | 32628 ft | 480 kts | 92° |
| 2026-04-20 05:10 | 33.49018 | -116.29277 | 32862 ft | 480 kts | 92° |
| 2026-04-20 05:11 | 33.48960 | -116.25282 | 33108 ft | 480 kts | 93° |
| 2026-04-20 05:11 | 33.48899 | -116.21287 | 33284 ft | 481 kts | 93° |
| 2026-04-20 05:11 | 33.48835 | -116.17272 | 33479 ft | 481 kts | 93° |
| 2026-04-20 05:11 | 33.48771 | -116.13259 | 33713 ft | 481 kts | 93° |
| 2026-04-20 05:12 | 33.48704 | -116.09240 | 33938 ft | 481 kts | 93° |
| 2026-04-20 05:12 | 33.48744 | -116.05233 | 34124 ft | 483 kts | 86° |
| 2026-04-20 05:12 | 33.49229 | -116.01245 | 34272 ft | 485 kts | 78° |
| 2026-04-20 05:12 | 33.50211 | -115.97380 | 34436 ft | 486 kts | 71° |
| 2026-04-20 05:13 | 33.51360 | -115.93570 | 34622 ft | 486 kts | 70° |
| 2026-04-20 05:13 | 33.52517 | -115.89807 | 34788 ft | 487 kts | 70° |
| 2026-04-20 05:13 | 33.53680 | -115.85988 | 34879 ft | 486 kts | 70° |
| 2026-04-20 05:14 | 33.55950 | -115.78328 | 34880 ft | 487 kts | 71° |
| 2026-04-20 05:14 | 33.58179 | -115.70650 | 34881 ft | 489 kts | 71° |
| 2026-04-20 05:15 | 33.60411 | -115.62942 | 34879 ft | 489 kts | 71° |
| 2026-04-20 05:15 | 33.62513 | -115.55217 | 34865 ft | 489 kts | 78° |
| 2026-04-20 05:16 | 33.63044 | -115.47137 | 34877 ft | 486 kts | 95° |
| 2026-04-20 05:16 | 33.62614 | -115.39039 | 34871 ft | 486 kts | 95° |
| 2026-04-20 05:17 | 33.62186 | -115.30949 | 34862 ft | 485 kts | 95° |
| 2026-04-20 05:17 | 33.61805 | -115.22867 | 34858 ft | 485 kts | 94° |
| 2026-04-20 05:18 | 33.61439 | -115.14792 | 34855 ft | 485 kts | 94° |
| 2026-04-20 05:18 | 33.61069 | -115.06753 | 34864 ft | 485 kts | 94° |
| 2026-04-20 05:19 | 33.60689 | -114.98670 | 34909 ft | 485 kts | 94° |
| 2026-04-20 05:19 | 33.60303 | -114.90581 | 34876 ft | 484 kts | 94° |
| 2026-04-20 05:20 | 33.59917 | -114.82584 | 34875 ft | 482 kts | 94° |
| 2026-04-20 05:20 | 33.59381 | -114.74566 | 34867 ft | 479 kts | 102° |
| 2026-04-20 05:21 | 33.57906 | -114.66769 | 34200 ft | 486 kts | 105° |
| 2026-04-20 05:21 | 33.57103 | -114.62862 | 33751 ft | 480 kts | 104° |
| 2026-04-20 05:21 | 33.56312 | -114.58989 | 33188 ft | 474 kts | 104° |
| 2026-04-20 05:21 | 33.55544 | -114.55170 | 32600 ft | 469 kts | 104° |
| 2026-04-20 05:22 | 33.54799 | -114.51414 | 31951 ft | 467 kts | 104° |
| 2026-04-20 05:22 | 33.54061 | -114.47657 | 31419 ft | 462 kts | 104° |
| 2026-04-20 05:22 | 33.53331 | -114.43926 | 30964 ft | 455 kts | 104° |
| 2026-04-20 05:22 | 33.52613 | -114.40254 | 30506 ft | 448 kts | 104° |
| 2026-04-20 05:23 | 33.51914 | -114.36688 | 30033 ft | 443 kts | 104° |
| 2026-04-20 05:23 | 33.51203 | -114.33069 | 29454 ft | 438 kts | 104° |
| 2026-04-20 05:23 | 33.50504 | -114.29525 | 28839 ft | 435 kts | 104° |
| 2026-04-20 05:23 | 33.49856 | -114.26244 | 28249 ft | 433 kts | 104° |
| 2026-04-20 05:24 | 33.49120 | -114.22527 | 27597 ft | 430 kts | 104° |
| 2026-04-20 05:24 | 33.48432 | -114.19052 | 27049 ft | 426 kts | 104° |
| 2026-04-20 05:24 | 33.47748 | -114.15601 | 26500 ft | 423 kts | 104° |
| 2026-04-20 05:24 | 33.47070 | -114.12185 | 25969 ft | 420 kts | 104° |
| 2026-04-20 05:25 | 33.46395 | -114.08796 | 25449 ft | 417 kts | 104° |
| 2026-04-20 05:25 | 33.45731 | -114.05473 | 25027 ft | 412 kts | 104° |
| 2026-04-20 05:25 | 33.45071 | -114.02176 | 24897 ft | 398 kts | 104° |
| 2026-04-20 05:25 | 33.44435 | -113.99006 | 24852 ft | 383 kts | 105° |
| 2026-04-20 05:26 | 33.43823 | -113.95962 | 24849 ft | 368 kts | 105° |
| 2026-04-20 05:26 | 33.43238 | -113.93050 | 24848 ft | 353 kts | 105° |
| 2026-04-20 05:26 | 33.42676 | -113.90248 | 24834 ft | 338 kts | 105° |
| 2026-04-20 05:26 | 33.42132 | -113.87544 | 24289 ft | 343 kts | 105° |
| 2026-04-20 05:27 | 33.41554 | -113.84680 | 23081 ft | 367 kts | 105° |
| 2026-04-20 05:27 | 33.40945 | -113.81665 | 22618 ft | 368 kts | 105° |
| 2026-04-20 05:27 | 33.40338 | -113.78652 | 22317 ft | 380 kts | 105° |
| 2026-04-20 05:27 | 33.39705 | -113.75523 | 22081 ft | 392 kts | 104° |
| 2026-04-20 05:28 | 33.39060 | -113.72329 | 21823 ft | 396 kts | 104° |
| 2026-04-20 05:28 | 33.38412 | -113.69124 | 21553 ft | 394 kts | 104° |
| 2026-04-20 05:28 | 33.37771 | -113.65956 | 21294 ft | 391 kts | 105° |
| 2026-04-20 05:28 | 33.37141 | -113.62844 | 21036 ft | 388 kts | 105° |
| 2026-04-20 05:29 | 33.36505 | -113.59716 | 20889 ft | 385 kts | 105° |
| 2026-04-20 05:29 | 33.35872 | -113.56606 | 20855 ft | 385 kts | 105° |
| 2026-04-20 05:29 | 33.35243 | -113.53512 | 20837 ft | 376 kts | 105° |
| 2026-04-20 05:29 | 33.34634 | -113.50521 | 20830 ft | 362 kts | 105° |
| 2026-04-20 05:30 | 33.34049 | -113.47659 | 20824 ft | 346 kts | 105° |
| 2026-04-20 05:30 | 33.33499 | -113.44912 | 20828 ft | 332 kts | 104° |
| 2026-04-20 05:30 | 33.33033 | -113.42275 | 20821 ft | 317 kts | 103° |
| 2026-04-20 05:30 | 33.32609 | -113.39749 | 20822 ft | 302 kts | 103° |
| 2026-04-20 05:31 | 33.32211 | -113.37373 | 20816 ft | 288 kts | 103° |
| 2026-04-20 05:31 | 33.31819 | -113.35060 | 20815 ft | 281 kts | 103° |
| 2026-04-20 05:31 | 33.31420 | -113.32735 | 20323 ft | 291 kts | 103° |
| 2026-04-20 05:31 | 33.30997 | -113.30293 | 19476 ft | 309 kts | 103° |
| 2026-04-20 05:32 | 33.30540 | -113.27665 | 18307 ft | 337 kts | 103° |
| 2026-04-20 05:32 | 33.30060 | -113.24900 | 18032 ft | 337 kts | 104° |
| 2026-04-20 05:32 | 33.29580 | -113.22082 | 17740 ft | 354 kts | 102° |
| 2026-04-20 05:32 | 33.29146 | -113.19134 | 17493 ft | 364 kts | 101° |
| 2026-04-20 05:33 | 33.28733 | -113.16141 | 17231 ft | 365 kts | 101° |
| 2026-04-20 05:33 | 33.28319 | -113.13168 | 16964 ft | 361 kts | 101° |
| 2026-04-20 05:33 | 33.27900 | -113.10221 | 16698 ft | 357 kts | 102° |
| 2026-04-20 05:33 | 33.27493 | -113.07352 | 16438 ft | 350 kts | 100° |
| 2026-04-20 05:34 | 33.27337 | -113.04480 | 16177 ft | 343 kts | 91° |
| 2026-04-20 05:34 | 33.27417 | -113.01658 | 15929 ft | 336 kts | 89° |
| 2026-04-20 05:34 | 33.27662 | -112.96169 | 15442 ft | 324 kts | 89° |
| 2026-04-20 05:35 | 33.27757 | -112.93492 | 15195 ft | 321 kts | 90° |
| 2026-04-20 05:35 | 33.27836 | -112.90834 | 14962 ft | 320 kts | 90° |
| 2026-04-20 05:35 | 33.27905 | -112.88157 | 14734 ft | 322 kts | 90° |
| 2026-04-20 05:35 | 33.27970 | -112.85509 | 14509 ft | 323 kts | 90° |
| 2026-04-20 05:36 | 33.28034 | -112.82850 | 14269 ft | 317 kts | 90° |
| 2026-04-20 05:36 | 33.28167 | -112.80237 | 14029 ft | 312 kts | 86° |
| 2026-04-20 05:36 | 33.28400 | -112.77690 | 13796 ft | 306 kts | 85° |
| 2026-04-20 05:36 | 33.28655 | -112.75189 | 13540 ft | 300 kts | 85° |
| 2026-04-20 05:37 | 33.28905 | -112.72736 | 13277 ft | 294 kts | 85° |
| 2026-04-20 05:37 | 33.29146 | -112.70322 | 13023 ft | 291 kts | 85° |
| 2026-04-20 05:37 | 33.29380 | -112.67924 | 12764 ft | 290 kts | 85° |
| 2026-04-20 05:37 | 33.29609 | -112.65528 | 12514 ft | 290 kts | 85° |
| 2026-04-20 05:38 | 33.29834 | -112.63150 | 12270 ft | 293 kts | 85° |
| 2026-04-20 05:38 | 33.30062 | -112.60718 | 12025 ft | 295 kts | 85° |
| 2026-04-20 05:38 | 33.30290 | -112.58279 | 11772 ft | 295 kts | 85° |
| 2026-04-20 05:38 | 33.30517 | -112.55837 | 11524 ft | 295 kts | 85° |
| 2026-04-20 05:39 | 33.30744 | -112.53399 | 11271 ft | 295 kts | 85° |
| 2026-04-20 05:39 | 33.30969 | -112.50960 | 11068 ft | 293 kts | 85° |
| 2026-04-20 05:39 | 33.31192 | -112.48548 | 11004 ft | 291 kts | 85° |
| 2026-04-20 05:39 | 33.31413 | -112.46149 | 10985 ft | 291 kts | 85° |
| 2026-04-20 05:40 | 33.31632 | -112.43770 | 10974 ft | 291 kts | 85° |
| 2026-04-20 05:40 | 33.31852 | -112.41362 | 10968 ft | 291 kts | 85° |
| 2026-04-20 05:40 | 33.32072 | -112.38957 | 10968 ft | 291 kts | 85° |
| 2026-04-20 05:40 | 33.32291 | -112.36553 | 10964 ft | 291 kts | 85° |
| 2026-04-20 05:41 | 33.32510 | -112.34160 | 10966 ft | 291 kts | 85° |
| 2026-04-20 05:41 | 33.32730 | -112.31750 | 10936 ft | 288 kts | 85° |
| 2026-04-20 05:41 | 33.32951 | -112.29323 | 10562 ft | 294 kts | 85° |
| 2026-04-20 05:41 | 33.33172 | -112.26893 | 10312 ft | 294 kts | 85° |
| 2026-04-20 05:42 | 33.33392 | -112.24486 | 10133 ft | 288 kts | 85° |
| 2026-04-20 05:42 | 33.33604 | -112.22154 | 9947 ft | 282 kts | 85° |
| 2026-04-20 05:42 | 33.33812 | -112.19857 | 9768 ft | 275 kts | 85° |
| 2026-04-20 05:42 | 33.34015 | -112.17608 | 9590 ft | 269 kts | 85° |
| 2026-04-20 05:43 | 33.34213 | -112.15412 | 9418 ft | 262 kts | 85° |
| 2026-04-20 05:43 | 33.34405 | -112.13279 | 9254 ft | 255 kts | 86° |
| 2026-04-20 05:43 | 33.34592 | -112.11201 | 9100 ft | 249 kts | 85° |
| 2026-04-20 05:43 | 33.34770 | -112.09160 | 9009 ft | 243 kts | 88° |
| 2026-04-20 05:44 | 33.34800 | -112.07138 | 8737 ft | 248 kts | 92° |
| 2026-04-20 05:44 | 33.34755 | -112.05093 | 8489 ft | 249 kts | 93° |
| 2026-04-20 05:44 | 33.34706 | -112.03021 | 8215 ft | 249 kts | 93° |
| 2026-04-20 05:44 | 33.34669 | -112.00961 | 7940 ft | 247 kts | 92° |
| 2026-04-20 05:45 | 33.34637 | -111.98911 | 7665 ft | 245 kts | 92° |
| 2026-04-20 05:45 | 33.34608 | -111.96888 | 7405 ft | 242 kts | 92° |
| 2026-04-20 05:45 | 33.34581 | -111.94882 | 7157 ft | 240 kts | 92° |
| 2026-04-20 05:45 | 33.34608 | -111.92887 | 7033 ft | 244 kts | 80° |
| 2026-04-20 05:46 | 33.35316 | -111.91034 | 7017 ft | 249 kts | 56° |
| 2026-04-20 05:46 | 33.36347 | -111.89371 | 7028 ft | 247 kts | 54° |
| 2026-04-20 05:46 | 33.37391 | -111.87744 | 7018 ft | 246 kts | 54° |
| 2026-04-20 05:46 | 33.38433 | -111.86122 | 7022 ft | 246 kts | 54° |
| 2026-04-20 05:47 | 33.39476 | -111.84492 | 7014 ft | 246 kts | 54° |
| 2026-04-20 05:47 | 33.40504 | -111.82878 | 7018 ft | 247 kts | 54° |
| 2026-04-20 05:47 | 33.41545 | -111.81238 | 7019 ft | 248 kts | 54° |
| 2026-04-20 05:47 | 33.42586 | -111.79591 | 7019 ft | 249 kts | 54° |
| 2026-04-20 05:48 | 33.43631 | -111.77937 | 7019 ft | 249 kts | 54° |
| 2026-04-20 05:48 | 33.44677 | -111.76278 | 7017 ft | 250 kts | 54° |
| 2026-04-20 05:48 | 33.45724 | -111.74617 | 7020 ft | 249 kts | 54° |
| 2026-04-20 05:48 | 33.46767 | -111.72958 | 7019 ft | 249 kts | 54° |
| 2026-04-20 05:49 | 33.47808 | -111.71302 | 7016 ft | 249 kts | 54° |
| 2026-04-20 05:49 | 33.48500 | -111.70202 | 7016 ft | 249 kts | 54° |
| 2026-04-20 05:49 | 33.49543 | -111.68542 | 7018 ft | 249 kts | 54° |
| 2026-04-20 05:49 | 33.50584 | -111.66884 | 7015 ft | 249 kts | 54° |
| 2026-04-20 05:50 | 33.51622 | -111.65231 | 7016 ft | 248 kts | 55° |
| 2026-04-20 05:50 | 33.52656 | -111.63582 | 7018 ft | 247 kts | 54° |
| 2026-04-20 05:50 | 33.53532 | -111.61832 | 6988 ft | 244 kts | 77° |
| 2026-04-20 05:50 | 33.53579 | -111.59866 | 7012 ft | 236 kts | 108° |
| 2026-04-20 05:51 | 33.52805 | -111.58178 | 7014 ft | 232 kts | 137° |
| 2026-04-20 05:51 | 33.51461 | -111.57159 | 7019 ft | 230 kts | 164° |
| 2026-04-20 05:51 | 33.49874 | -111.56970 | 7008 ft | 232 kts | 188° |
| 2026-04-20 05:51 | 33.48304 | -111.57465 | 7019 ft | 235 kts | 198° |
| 2026-04-20 05:52 | 33.46771 | -111.58116 | 7019 ft | 238 kts | 199° |
| 2026-04-20 05:52 | 33.45274 | -111.58977 | 6992 ft | 241 kts | 221° |
| 2026-04-20 05:52 | 33.44415 | -111.60667 | 7008 ft | 242 kts | 256° |
| 2026-04-20 05:52 | 33.44187 | -111.62693 | 6785 ft | 249 kts | 264° |
| 2026-04-20 05:53 | 33.44111 | -111.64769 | 6497 ft | 250 kts | 267° |
| 2026-04-20 05:53 | 33.44097 | -111.66850 | 6187 ft | 250 kts | 268° |
| 2026-04-20 05:53 | 33.44096 | -111.68936 | 5864 ft | 250 kts | 268° |
| 2026-04-20 05:53 | 33.44095 | -111.71022 | 5539 ft | 250 kts | 269° |
| 2026-04-20 05:54 | 33.44093 | -111.73079 | 5217 ft | 245 kts | 269° |
| 2026-04-20 05:54 | 33.44090 | -111.75091 | 4909 ft | 238 kts | 269° |
| 2026-04-20 05:54 | 33.44087 | -111.77051 | 4618 ft | 232 kts | 269° |
| 2026-04-20 05:54 | 33.44085 | -111.78957 | 4317 ft | 226 kts | 269° |
| 2026-04-20 05:55 | 33.44084 | -111.80808 | 4026 ft | 219 kts | 269° |
| 2026-04-20 05:55 | 33.44082 | -111.82583 | 3757 ft | 213 kts | 269° |
| 2026-04-20 05:55 | 33.44081 | -111.84345 | 3483 ft | 204 kts | 269° |
| 2026-04-20 05:55 | 33.44080 | -111.85956 | 3250 ft | 188 kts | 269° |
| 2026-04-20 05:56 | 33.44080 | -111.87475 | 2995 ft | 177 kts | 268° |
| 2026-04-20 05:56 | 33.44080 | -111.88919 | 2777 ft | 169 kts | 268° |
| 2026-04-20 05:56 | 33.44079 | -111.90289 | 2585 ft | 159 kts | 268° |
| 2026-04-20 05:56 | 33.44079 | -111.91579 | 2374 ft | 155 kts | 268° |
| 2026-04-20 05:57 | 33.44079 | -111.92878 | 2187 ft | 158 kts | 268° |
| 2026-04-20 05:57 | 33.44077 | -111.94208 | 2035 ft | 162 kts | 269° |
| 2026-04-20 05:57 | 33.44063 | -111.95550 | 1836 ft | 159 kts | 269° |
| 2026-04-20 05:57 | 33.44074 | -111.96870 | 1614 ft | 158 kts | 270° |
| 2026-04-20 05:58 | 33.44075 | -111.98175 | 1356 ft | 154 kts | 271° |
| 2026-04-20 05:58 | 33.44079 | -111.99468 | 1165 ft | 156 kts | 271° |
| 2026-04-20 05:58 | 33.44085 | -112.00688 | 1130 ft | 129 kts | 270° |
| 2026-04-20 05:58 | 33.44086 | -112.01404 | 1131 ft | 62 kts | 270° |
| 2026-04-20 05:59 | 33.44060 | -112.01672 | 1132 ft | 14 kts | 230° |
| 2026-04-20 05:59 | 33.44028 | -112.01693 | 1131 ft | 0 kts | 187° |
| 2026-04-20 06:00 | 33.44018 | -112.01694 | 1133 ft | 4 kts | 182° |
| 2026-04-20 06:00 | 33.43982 | -112.01666 | 1131 ft | 9 kts | 117° |
| 2026-04-20 06:00 | 33.43976 | -112.01565 | 1133 ft | 15 kts | 90° |
| 2026-04-20 06:01 | 33.43951 | -112.01450 | 1131 ft | 12 kts | 146° |
| 2026-04-20 06:01 | 33.43902 | -112.01366 | 1132 ft | 14 kts | 93° |
| 2026-04-20 06:01 | 33.43902 | -112.01250 | 1130 ft | 15 kts | 90° |
| 2026-04-20 06:01 | 33.43903 | -112.01133 | 1130 ft | 12 kts | 90° |
| 2026-04-20 06:02 | 33.43889 | -112.01048 | 1132 ft | 10 kts | 133° |
| 2026-04-20 06:02 | 33.43828 | -112.01022 | 1132 ft | 10 kts | 173° |
| 2026-04-20 06:02 | 33.43750 | -112.01013 | 1132 ft | 12 kts | 174° |
| 2026-04-20 06:02 | 33.43692 | -112.00957 | 1130 ft | 10 kts | 99° |
| 2026-04-20 06:03 | 33.43691 | -112.00942 | 1134 ft | 0 kts | 91° |